Time;durP1;ratioP1;P1;durP2;ratioP2;P2;SDS_P1;SDS_P2;PMS_P1;PMS_P2;Temp;Humidity;BMP_temperature;BMP_pressure;BME280_temperature;BME280_humidity;BME280_pressure;Samples;Min_cycle;Max_cycle;Signal;HPM_P1;HPM_P2
2023/07/16 00:07:40;;;;;;;3.70;0.90;;;;;;;19.86;56.30;99878.69;20988956;28;20554;-79
2023/07/16 00:17:43;;;;;;;2.90;1.20;;;;;;;19.22;58.18;99875.53;20958291;28;20219;-80
2023/07/16 00:27:47;;;;;;;1.85;1.00;;;;;;;19.97;55.63;99895.88;20954461;28;20264;-79
2023/07/16 00:37:51;;;;;;;2.42;1.17;;;;;;;19.81;55.58;99890.50;20929499;28;20254;-78
2023/07/16 00:47:54;;;;;;;2.95;1.55;;;;;;;19.61;56.56;99904.28;20960771;28;20215;-79
2023/07/16 00:58:02;;;;;;;5.53;1.15;;;;;;;19.81;56.20;99904.75;20942259;28;20252;-78
2023/07/16 01:08:09;;;;;;;2.13;1.02;;;;;;;19.77;57.96;99914.53;20957693;28;20753;-78
2023/07/16 01:18:11;;;;;;;3.17;0.82;;;;;;;19.66;56.58;99908.78;20942369;28;20231;-80
2023/07/16 01:28:38;;;;;;;1.98;0.95;;;;;;;19.90;55.60;99913.75;20952327;28;20230;-80
2023/07/16 01:38:40;;;;;;;2.28;0.73;;;;;;;19.21;58.01;99930.13;20961722;28;20195;-78
2023/07/16 01:48:43;;;;;;;3.10;1.30;;;;;;;19.69;56.18;99933.66;20955232;28;20257;-80
2023/07/16 01:58:46;;;;;;;1.85;0.85;;;;;;;19.65;55.44;99945.06;20954100;28;20487;-77
2023/07/16 02:08:48;;;;;;;2.85;1.00;;;;;;;18.96;57.17;99956.44;20977776;28;20284;-80
2023/07/16 02:18:51;;;;;;;4.28;0.88;;;;;;;19.32;55.55;99963.25;20967090;28;20219;-79
2023/07/16 02:28:53;;;;;;;3.70;1.10;;;;;;;19.30;55.55;99982.78;20958052;28;20227;-78
2023/07/16 02:38:56;;;;;;;4.38;1.20;;;;;;;18.87;56.44;99975.06;20947496;28;20676;-79
2023/07/16 02:48:59;;;;;;;3.00;0.93;;;;;;;19.07;56.46;99973.63;20960487;28;20227;-77
2023/07/16 02:59:02;;;;;;;7.47;1.42;;;;;;;18.86;58.42;99990.53;20961930;28;20265;-78
2023/07/16 03:09:04;;;;;;;2.28;1.27;;;;;;;18.39;59.50;99996.97;20962680;28;20223;-79
2023/07/16 03:19:08;;;;;;;5.07;1.48;;;;;;;18.57;58.82;100001.66;20980942;28;20261;-80
2023/07/16 03:29:10;;;;;;;5.00;1.13;;;;;;;18.40;57.10;100019.38;20952159;28;20269;-78
2023/07/16 03:39:13;;;;;;;4.82;0.90;;;;;;;18.34;56.21;100022.97;20977171;28;20256;-79
2023/07/16 03:49:16;;;;;;;3.22;0.80;;;;;;;18.18;55.38;100040.28;20946777;28;20253;-79
2023/07/16 03:59:18;;;;;;;5.70;0.98;;;;;;;18.10;54.05;100056.44;20979114;28;20192;-78
2023/07/16 04:09:22;;;;;;;3.70;1.20;;;;;;;18.43;52.39;100063.38;20977956;28;20219;-78
2023/07/16 04:19:24;;;;;;;4.88;1.23;;;;;;;17.96;51.74;100075.34;20957424;28;20664;-78
2023/07/16 04:29:27;;;;;;;4.57;1.30;;;;;;;18.46;49.58;100083.34;20947759;28;20320;-78
2023/07/16 04:39:30;;;;;;;3.40;1.40;;;;;;;18.46;49.55;100097.59;20947472;28;20203;-79
2023/07/16 04:49:35;;;;;;;3.95;1.20;;;;;;;18.18;50.09;100103.75;20977027;28;20222;-79
2023/07/16 04:59:37;;;;;;;6.97;1.70;;;;;;;17.68;49.50;100122.09;20962006;28;20195;-79
2023/07/16 05:09:40;;;;;;;8.60;1.67;;;;;;;17.83;49.21;100126.81;20974875;28;20543;-79
2023/07/16 05:19:42;;;;;;;5.47;1.42;;;;;;;17.25;50.44;100134.81;20957631;28;20187;-79
2023/07/16 05:29:45;;;;;;;3.92;1.80;;;;;;;17.81;48.95;100148.31;20946107;28;20253;-79
2023/07/16 05:39:47;;;;;;;5.28;1.88;;;;;;;17.68;48.25;100159.09;20941846;28;20208;-78
2023/07/16 05:49:50;;;;;;;5.78;1.50;;;;;;;17.49;48.80;100170.56;20946588;28;20227;-79
2023/07/16 05:59:53;;;;;;;6.40;1.65;;;;;;;17.90;47.32;100168.81;20959888;28;20236;-79
2023/07/16 06:09:58;;;;;;;5.28;2.38;;;;;;;17.89;47.38;100170.00;20974877;28;20867;-79
2023/07/16 06:20:02;;;;;;;5.78;2.78;;;;;;;17.74;46.59;100174.66;20957880;28;20195;-80
2023/07/16 06:30:07;;;;;;;9.80;2.53;;;;;;;18.35;44.71;100181.28;20809711;28;20290;-80
2023/07/16 06:40:10;;;;;;;8.27;2.45;;;;;;;18.37;43.67;100193.13;20811942;28;20192;-80
2023/07/16 06:50:12;;;;;;;4.68;2.75;;;;;;;18.54;43.48;100203.94;20796525;28;20232;-79
2023/07/16 07:00:15;;;;;;;8.88;3.42;;;;;;;18.50;43.06;100217.31;20794984;28;20618;-80
2023/07/16 07:10:18;;;;;;;9.55;3.55;;;;;;;18.58;42.95;100202.75;20778515;28;20243;-79
2023/07/16 07:20:21;;;;;;;8.10;3.03;;;;;;;19.17;41.72;100212.50;20794428;28;20817;-79
2023/07/16 07:30:23;;;;;;;8.15;3.83;;;;;;;18.61;42.06;100219.13;20789723;28;20278;-78
2023/07/16 07:40:26;;;;;;;7.50;3.28;;;;;;;18.62;41.12;100235.03;20793511;28;20204;-78
2023/07/16 07:50:29;;;;;;;8.63;3.10;;;;;;;19.35;39.53;100229.03;20822210;28;20783;-79
2023/07/16 08:00:32;;;;;;;7.07;3.75;;;;;;;20.20;38.23;100224.09;20805326;28;20200;-80
2023/07/16 08:10:34;;;;;;;6.25;3.55;;;;;;;19.20;38.34;100233.72;20806776;28;20232;-80
2023/07/16 08:20:37;;;;;;;6.82;3.03;;;;;;;20.01;37.10;100228.84;20784065;28;20196;-80
2023/07/16 08:30:39;;;;;;;6.63;3.10;;;;;;;20.85;35.73;100240.41;20768363;28;20518;-79
2023/07/16 08:40:42;;;;;;;6.13;3.00;;;;;;;20.43;35.77;100250.38;20773409;28;20492;-80
2023/07/16 08:50:49;;;;;;;10.20;3.45;;;;;;;21.23;35.87;100244.69;20752467;28;20394;-79
2023/07/16 09:00:52;;;;;;;6.32;3.20;;;;;;;20.15;35.57;100267.31;20817643;28;20965;-78
2023/07/16 09:10:55;;;;;;;5.25;2.88;;;;;;;20.59;34.33;100264.38;20780403;28;20362;-78
2023/07/16 09:21:01;;;;;;;6.70;3.08;;;;;;;20.47;34.96;100261.84;20796293;28;20247;-79
2023/07/16 09:31:08;;;;;;;5.65;2.60;;;;;;;20.91;33.53;100271.13;20792824;28;20274;-79
2023/07/16 09:41:11;;;;;;;5.28;2.65;;;;;;;21.59;32.27;100274.22;20785711;28;20250;-81
2023/07/16 09:51:14;;;;;;;4.40;2.63;;;;;;;21.72;32.50;100275.47;20782899;28;20373;-78
2023/07/16 10:01:16;;;;;;;5.65;2.30;;;;;;;22.15;31.99;100271.44;20763831;28;20204;-78
2023/07/16 10:11:19;;;;;;;4.10;2.50;;;;;;;21.72;32.42;100275.47;20771246;28;20232;-79
2023/07/16 10:21:23;;;;;;;5.35;2.42;;;;;;;22.63;32.03;100285.34;20765509;28;20193;-79
2023/07/16 10:31:26;;;;;;;4.97;2.38;;;;;;;22.48;31.66;100286.59;20779366;28;20252;-79
2023/07/16 10:41:30;;;;;;;6.43;2.65;;;;;;;22.17;31.90;100279.63;20812053;28;20280;-78
2023/07/16 10:51:33;;;;;;;4.07;2.38;;;;;;;22.29;31.15;100299.28;20759478;28;20494;-77
2023/07/16 11:01:36;;;;;;;6.32;2.05;;;;;;;23.24;31.30;100291.75;20775258;28;20247;-77
2023/07/16 11:11:40;;;;;;;6.30;1.83;;;;;;;22.68;31.83;100305.00;20784842;28;20367;-77
2023/07/16 11:21:47;;;;;;;5.47;2.05;;;;;;;23.50;30.59;100310.47;20788694;28;20194;-79
2023/07/16 11:31:52;;;;;;;6.78;2.38;;;;;;;22.47;31.88;100317.31;20783479;28;20560;-78
2023/07/16 11:41:56;;;;;;;5.22;2.50;;;;;;;22.04;32.36;100322.22;20795033;28;20201;-78
2023/07/16 11:52:01;;;;;;;4.07;2.30;;;;;;;22.61;32.03;100316.47;20787276;28;20229;-78
2023/07/16 12:02:04;;;;;;;4.60;2.00;;;;;;;22.72;32.00;100328.78;20779916;28;20605;-77
2023/07/16 12:12:07;;;;;;;5.43;2.33;;;;;;;22.88;32.49;100327.47;20772975;28;20224;-78
2023/07/16 12:22:09;;;;;;;4.20;1.83;;;;;;;23.11;30.17;100313.53;20771362;28;20200;-78
2023/07/16 12:32:13;;;;;;;3.67;2.28;;;;;;;23.02;30.43;100334.03;20777729;28;20243;-80
2023/07/16 12:42:16;;;;;;;3.80;1.83;;;;;;;23.01;30.18;100345.94;20787334;28;20201;-78
2023/07/16 12:52:18;;;;;;;4.57;1.95;;;;;;;22.67;31.51;100343.53;20766666;28;20286;-78
2023/07/16 13:02:21;;;;;;;3.67;1.98;;;;;;;23.00;30.91;100347.97;20751327;28;20262;-78
2023/07/16 13:12:23;;;;;;;2.90;1.83;;;;;;;23.01;30.75;100340.19;20764941;28;20228;-78
2023/07/16 13:22:26;;;;;;;4.53;1.95;;;;;;;23.41;30.96;100345.38;20830760;28;20204;-77
2023/07/16 13:32:29;;;;;;;5.57;1.98;;;;;;;23.35;29.84;100354.84;20779326;28;20595;-78
2023/07/16 13:42:31;;;;;;;3.53;1.80;;;;;;;24.18;29.72;100360.59;20781374;28;20208;-78
2023/07/16 13:52:35;;;;;;;5.65;2.53;;;;;;;23.78;29.57;100352.59;20804037;28;20233;-77
2023/07/16 14:02:39;;;;;;;9.60;2.22;;;;;;;23.12;30.00;100341.00;20784708;28;20277;-80
2023/07/16 14:12:42;;;;;;;4.65;2.65;;;;;;;23.70;29.70;100348.16;20785475;28;20402;-78
2023/07/16 14:22:44;;;;;;;4.95;2.53;;;;;;;23.30;30.93;100350.34;20782405;28;20220;-78
2023/07/16 14:32:47;;;;;;;6.72;2.30;;;;;;;23.59;30.57;100356.00;20768895;28;20288;-76
2023/07/16 14:42:50;;;;;;;4.90;2.85;;;;;;;23.59;30.54;100358.88;20786009;28;20326;-77
2023/07/16 14:52:53;;;;;;;4.70;3.00;;;;;;;23.76;31.18;100358.81;20780063;28;20229;-78
2023/07/16 15:02:56;;;;;;;4.38;2.50;;;;;;;24.04;30.34;100365.59;20782565;28;20290;-77
2023/07/16 15:12:59;;;;;;;3.85;2.33;;;;;;;23.60;31.25;100360.53;20780934;28;20258;-77
2023/07/16 15:23:02;;;;;;;6.90;2.97;;;;;;;24.35;30.14;100343.63;20784460;28;20248;-76
2023/07/16 15:33:04;;;;;;;6.13;2.42;;;;;;;23.77;31.06;100359.63;20794117;28;20204;-76
2023/07/16 15:43:08;;;;;;;6.60;2.75;;;;;;;23.38;30.62;100354.81;20805742;28;20230;-77
2023/07/16 15:53:11;;;;;;;3.38;1.98;;;;;;;23.84;30.29;100348.06;20791539;28;20268;-78
2023/07/16 16:03:14;;;;;;;6.63;2.45;;;;;;;23.34;30.53;100354.03;20794891;28;20204;-78
2023/07/16 16:13:18;;;;;;;5.50;2.10;;;;;;;22.72;30.88;100363.19;20804148;28;20254;-76
2023/07/16 16:23:21;;;;;;;3.92;1.85;;;;;;;22.95;31.06;100342.66;20841757;28;20204;-76
2023/07/16 16:33:23;;;;;;;3.00;1.98;;;;;;;23.80;30.27;100347.25;20881503;28;20195;-76
2023/07/16 16:43:28;;;;;;;3.92;2.20;;;;;;;23.92;30.30;100338.97;20848445;28;20248;-77
2023/07/16 16:53:31;;;;;;;5.57;2.50;;;;;;;23.44;30.68;100347.44;20845069;28;20254;-77
2023/07/16 17:03:34;;;;;;;3.65;2.58;;;;;;;23.53;31.27;100346.97;20863429;28;20576;-77
2023/07/16 17:13:36;;;;;;;4.18;2.22;;;;;;;24.22;31.12;100341.25;20872193;28;20556;-77
2023/07/16 17:23:39;;;;;;;7.18;2.22;;;;;;;23.77;30.84;100348.13;20866972;28;20251;-75
2023/07/16 17:33:42;;;;;;;4.40;2.22;;;;;;;23.24;31.29;100343.41;20839951;28;20204;-77
2023/07/16 17:43:45;;;;;;;6.68;2.63;;;;;;;23.10;30.93;100354.94;20821900;28;20246;-77
2023/07/16 17:53:48;;;;;;;6.93;2.83;;;;;;;22.84;31.72;100347.59;20854238;28;20215;-77
2023/07/16 18:03:51;;;;;;;5.47;2.40;;;;;;;22.52;32.09;100350.50;20879415;28;20341;-78
2023/07/16 18:13:53;;;;;;;4.22;2.17;;;;;;;23.85;31.01;100366.94;20851347;28;20220;-78
2023/07/16 18:23:57;;;;;;;6.97;2.60;;;;;;;22.72;33.31;100366.06;20857490;28;20240;-77
2023/07/16 18:34:00;;;;;;;3.85;2.40;;;;;;;23.18;32.37;100377.47;20834564;28;20297;-78
2023/07/16 18:44:04;;;;;;;4.85;2.47;;;;;;;23.19;33.02;100369.69;20834480;28;20247;-77
2023/07/16 18:54:07;;;;;;;5.70;2.45;;;;;;;23.29;32.15;100380.31;20853110;28;20255;-77
2023/07/16 19:04:09;;;;;;;6.28;2.25;;;;;;;23.50;32.72;100377.38;20855121;28;20858;-77
2023/07/16 19:14:12;;;;;;;4.35;3.10;;;;;;;23.39;33.16;100379.44;20858783;28;20215;-77
2023/07/16 19:24:15;;;;;;;10.43;4.78;;;;;;;22.78;34.32;100384.50;20880626;28;20273;-78
2023/07/16 19:34:18;;;;;;;8.00;4.07;;;;;;;22.74;34.17;100394.31;20855529;28;20192;-78
2023/07/16 19:44:21;;;;;;;7.18;3.20;;;;;;;22.47;35.61;100416.88;20856784;28;20215;-78
2023/07/16 19:54:23;;;;;;;5.38;2.67;;;;;;;22.46;34.28;100418.94;20826463;28;20242;-77
2023/07/16 20:04:26;;;;;;;5.07;2.33;;;;;;;22.08;34.46;100431.91;20820896;28;20262;-78
2023/07/16 20:14:29;;;;;;;10.27;2.80;;;;;;;22.26;34.96;100436.88;20825569;28;20560;-78
2023/07/16 20:24:32;;;;;;;4.88;2.65;;;;;;;22.13;35.53;100434.41;20843249;28;20282;-77
2023/07/16 20:34:35;;;;;;;9.85;2.83;;;;;;;22.12;35.17;100427.03;20831180;28;20200;-78
2023/07/16 20:44:37;;;;;;;5.72;2.72;;;;;;;22.17;35.88;100448.75;20828682;28;20215;-79
2023/07/16 20:54:42;;;;;;;4.82;2.88;;;;;;;21.85;36.22;100444.94;20811827;28;20255;-79
2023/07/16 21:04:45;;;;;;;9.60;2.72;;;;;;;21.97;36.10;100448.25;20827569;28;20256;-77
2023/07/16 21:14:48;;;;;;;4.82;2.97;;;;;;;21.82;36.44;100455.19;20844979;28;20293;-78
2023/07/16 21:24:51;;;;;;;7.18;2.88;;;;;;;21.32;41.30;100457.75;20816542;28;20555;-79
2023/07/16 21:34:53;;;;;;;7.63;3.33;;;;;;;21.38;42.23;100461.06;20897969;28;20204;-79
2023/07/16 21:44:56;;;;;;;4.38;2.72;;;;;;;21.39;42.85;100457.81;20876219;28;20284;-79
2023/07/16 21:54:58;;;;;;;6.55;2.97;;;;;;;20.69;43.71;100458.06;20896620;28;20269;-77
2023/07/16 22:05:01;;;;;;;5.55;3.78;;;;;;;20.50;44.84;100449.72;20856019;28;20273;-79
2023/07/16 22:15:05;;;;;;;9.95;3.30;;;;;;;20.87;43.54;100455.38;20844607;28;20220;-78
2023/07/16 22:25:09;;;;;;;7.18;3.95;;;;;;;19.93;47.76;100458.50;20854841;28;20219;-78
2023/07/16 22:35:12;;;;;;;7.65;3.78;;;;;;;20.37;45.87;100461.44;20868693;28;20196;-78
2023/07/16 22:45:14;;;;;;;7.47;3.72;;;;;;;20.16;46.73;100471.81;20883026;28;20273;-78
2023/07/16 22:55:17;;;;;;;5.93;2.78;;;;;;;20.23;44.61;100484.16;20873412;28;20216;-78
2023/07/16 23:05:20;;;;;;;6.03;3.35;;;;;;;20.44;44.88;100479.88;20858610;28;20479;-78
2023/07/16 23:15:24;;;;;;;8.60;3.28;;;;;;;20.27;43.54;100482.13;20876254;28;20246;-78
2023/07/16 23:25:27;;;;;;;6.68;3.50;;;;;;;19.57;45.73;100465.78;20886878;28;20216;-78
2023/07/16 23:35:31;;;;;;;5.70;3.50;;;;;;;19.65;45.91;100473.22;20884757;28;20222;-78
2023/07/16 23:45:34;;;;;;;8.50;3.85;;;;;;;19.43;47.06;100459.03;20889434;28;20207;-77
2023/07/16 23:55:36;;;;;;;5.63;3.15;;;;;;;19.64;47.06;100447.91;20905393;28;20223;-78
